Hampton Beach, New Hampshire
Current Conditions -  °F | °C
As of 4:58 PM on Monday 20 Oct 2014 (Local Time) from KPSM Reporting Station
Broken Clouds Broken Clouds  
Wind Chill: 56°   Ceiling: 25000
Heat Index: 56°   Visibility: 10mi
Dew Point: 32°   Wind: 8mph
Humidity: 41%   Direction: 220°SW
Pressure: 29.94"   Gusts: NA
Location:  42.9284°N, 70.8566°W
Report Text: KPSM 202058Z 22007KT 10SM FEW130 BKN250 13/00 A2994 RMK AO2A SLP143 T01310000 55005
Loading
Personal Weather Stations






























Interactive Weather Map
Tropical Storm Tracking
New forecast layout! Learn more

10-Day Weather Forecast

Advertisements
Track Severe Weather on mobile